createdAt,value
2022-09-15T00:00:54.691Z,6.00
2022-09-15T00:03:23.785Z,5.40
2022-09-15T00:05:51.977Z,5.40
2022-09-15T00:08:20.206Z,5.13
2022-09-15T00:10:50.499Z,5.27
2022-09-15T00:13:18.759Z,5.20
2022-09-15T00:15:46.994Z,5.37
2022-09-15T00:18:15.233Z,6.43
2022-09-15T00:20:43.990Z,6.10
2022-09-15T00:23:12.460Z,6.93
2022-09-15T00:25:44.181Z,6.90
2022-09-15T00:28:13.920Z,6.30
2022-09-15T00:30:42.976Z,6.73
2022-09-15T00:33:11.454Z,6.90
2022-09-15T00:35:40.366Z,6.80
2022-09-15T00:38:08.910Z,7.20
2022-09-15T00:40:45.076Z,7.37
2022-09-15T00:43:15.029Z,7.07
2022-09-15T00:45:43.459Z,7.37
2022-09-15T00:48:14.910Z,7.00
2022-09-15T00:50:44.165Z,7.13
2022-09-15T00:53:13.220Z,7.30
2022-09-15T00:55:44.621Z,6.77
2022-09-15T00:58:13.728Z,6.67
2022-09-15T01:00:46.310Z,7.30
2022-09-15T01:03:15.765Z,6.70
2022-09-15T01:05:46.534Z,7.30
2022-09-15T01:08:17.796Z,7.17
2022-09-15T01:10:46.734Z,7.90
2022-09-15T01:13:15.799Z,7.77
2022-09-15T01:15:50.529Z,7.70
2022-09-15T01:18:22.033Z,7.33
2022-09-15T01:21:10.168Z,7.60
2022-09-15T01:23:46.173Z,7.23
2022-09-15T01:26:37.690Z,7.07
2022-09-15T01:29:24.517Z,7.63
2022-09-15T01:32:14.969Z,7.30
2022-09-15T01:34:46.428Z,6.70
2022-09-15T01:37:17.618Z,7.20
2022-09-15T01:39:46.951Z,6.77
2022-09-15T01:42:16.984Z,7.17
2022-09-15T01:44:47.733Z,6.60
2022-09-15T01:47:17.761Z,7.63
2022-09-15T01:49:48.022Z,6.70
2022-09-15T01:52:17.637Z,6.37
2022-09-15T01:54:49.089Z,6.90
2022-09-15T01:57:21.190Z,6.97
2022-09-15T01:59:51.367Z,6.30
2022-09-15T02:02:21.713Z,7.03
2022-09-15T02:04:51.922Z,7.07
2022-09-15T02:07:23.686Z,6.93
2022-09-15T02:09:55.445Z,7.03
2022-09-15T02:12:29.118Z,6.97
2022-09-15T02:15:01.042Z,7.20
2022-09-15T02:17:32.627Z,7.20
2022-09-15T02:20:08.040Z,6.77
2022-09-15T02:22:38.051Z,6.80
2022-09-15T02:25:08.030Z,6.43
2022-09-15T02:27:38.879Z,6.77
2022-09-15T02:30:11.657Z,7.10
2022-09-15T02:32:43.039Z,6.80
2022-09-15T02:35:11.665Z,6.40
2022-09-15T02:37:39.932Z,6.40
2022-09-15T02:40:08.839Z,5.47
2022-09-15T02:42:37.071Z,6.20
2022-09-15T02:45:06.057Z,6.13
2022-09-15T02:47:35.707Z,5.63
2022-09-15T02:50:03.919Z,5.30
2022-09-15T02:52:32.138Z,5.77
2022-09-15T02:55:00.789Z,5.27
2022-09-15T02:57:28.955Z,4.67
2022-09-15T03:00:15.970Z,5.30
2022-09-15T03:02:46.740Z,4.93
2022-09-15T03:05:15.670Z,4.77
2022-09-15T03:07:43.871Z,4.73
2022-09-15T03:10:14.183Z,4.50
2022-09-15T03:12:43.187Z,4.53
2022-09-15T03:15:12.655Z,4.87
2022-09-15T03:17:42.414Z,5.07
2022-09-15T03:20:13.598Z,4.17
2022-09-15T03:22:41.878Z,5.00
2022-09-15T03:25:10.605Z,4.50
2022-09-15T03:27:39.098Z,5.00
2022-09-15T03:30:08.050Z,4.80
2022-09-15T03:32:36.223Z,4.83
2022-09-15T03:35:04.460Z,5.33
2022-09-15T03:37:34.308Z,5.90
2022-09-15T03:40:03.701Z,6.00
2022-09-15T03:42:32.294Z,6.00
2022-09-15T03:45:00.483Z,6.10
2022-09-15T03:47:28.857Z,6.30
2022-09-15T03:49:57.074Z,6.30
2022-09-15T03:52:26.146Z,6.07
2022-09-15T03:54:55.727Z,6.20
2022-09-15T03:57:23.978Z,6.47
2022-09-15T03:59:52.203Z,6.37
2022-09-15T04:02:21.293Z,5.90
2022-09-15T04:04:49.782Z,6.00
2022-09-15T04:07:18.040Z,6.10
2022-09-15T04:09:46.220Z,6.10
2022-09-15T04:12:15.795Z,5.97
2022-09-15T04:14:44.161Z,6.53
2022-09-15T04:17:12.437Z,6.07
2022-09-15T04:19:41.531Z,7.10
2022-09-15T04:22:12.318Z,6.50
2022-09-15T04:24:44.136Z,6.00
2022-09-15T04:27:12.292Z,6.17
2022-09-15T04:29:41.983Z,6.17
2022-09-15T04:32:10.616Z,6.47
2022-09-15T04:34:41.372Z,6.70
2022-09-15T04:37:09.840Z,6.67
2022-09-15T04:39:38.073Z,6.43
2022-09-15T04:42:06.966Z,6.07
2022-09-15T04:44:35.377Z,5.30
2022-09-15T04:47:05.032Z,5.40
2022-09-15T04:49:33.424Z,5.73
2022-09-15T04:52:01.705Z,6.47
2022-09-15T04:54:29.895Z,5.77
2022-09-15T04:56:58.130Z,5.50
2022-09-15T04:59:26.329Z,5.37
2022-09-15T05:01:55.969Z,5.40
2022-09-15T05:04:25.711Z,5.47
2022-09-15T05:06:54.037Z,5.50
2022-09-15T05:09:22.315Z,5.30
2022-09-15T05:11:50.505Z,5.97
2022-09-15T05:14:24.828Z,5.27
2022-09-15T05:16:53.192Z,5.20
2022-09-15T05:19:21.504Z,5.33
2022-09-15T05:21:51.080Z,5.33
2022-09-15T05:24:19.737Z,5.23
2022-09-15T05:26:47.915Z,5.50
2022-09-15T05:29:16.143Z,5.60
2022-09-15T05:31:44.424Z,5.43
2022-09-15T05:34:12.683Z,4.90
2022-09-15T05:36:41.187Z,5.43
2022-09-15T05:39:10.803Z,5.10
2022-09-15T05:41:39.033Z,5.00
2022-09-15T05:44:07.255Z,5.00
2022-09-15T05:46:35.539Z,4.50
2022-09-15T05:49:03.781Z,5.00
2022-09-15T05:51:31.985Z,4.93
2022-09-15T05:54:00.158Z,4.37
2022-09-15T05:56:29.826Z,4.40
2022-09-15T05:58:58.061Z,4.67
2022-09-15T06:01:26.989Z,4.20
2022-09-15T06:03:55.976Z,4.20
2022-09-15T06:06:24.818Z,4.40
2022-09-15T06:08:58.077Z,4.10
2022-09-15T06:11:28.303Z,4.03
2022-09-15T06:13:57.929Z,3.90
2022-09-15T06:16:27.030Z,3.67
2022-09-15T06:18:55.574Z,3.40
2022-09-15T06:21:24.473Z,3.30
2022-09-15T06:23:54.802Z,3.73
2022-09-15T06:26:23.124Z,3.70
2022-09-15T06:28:52.288Z,3.50
2022-09-15T06:31:21.908Z,3.17
2022-09-15T06:33:51.515Z,3.47
2022-09-15T06:36:20.957Z,3.20
2022-09-15T06:38:49.420Z,3.00
2022-09-15T06:41:17.628Z,3.23
2022-09-15T06:43:46.604Z,3.17
2022-09-15T06:46:15.722Z,3.03
2022-09-15T06:48:48.347Z,3.07
2022-09-15T06:51:17.519Z,3.20
2022-09-15T06:53:46.157Z,2.80
2022-09-15T06:56:15.081Z,2.67
2022-09-15T06:58:43.595Z,2.70
2022-09-15T07:01:12.524Z,2.20
2022-09-15T07:03:41.528Z,2.30
2022-09-15T07:06:12.055Z,2.40
2022-09-15T07:08:40.434Z,2.23
2022-09-15T07:11:08.934Z,2.20
2022-09-15T07:13:37.566Z,2.23
2022-09-15T07:16:07.176Z,1.80
2022-09-15T07:18:39.724Z,1.80
2022-09-15T07:21:13.352Z,1.90
2022-09-15T07:23:41.725Z,2.27
2022-09-15T07:26:10.706Z,2.20
2022-09-15T07:28:39.408Z,1.87
2022-09-15T07:31:08.631Z,2.37
2022-09-15T07:33:37.399Z,2.17
2022-09-15T07:36:06.725Z,2.60
2022-09-15T07:38:36.538Z,2.70
2022-09-15T07:41:05.264Z,2.60
2022-09-15T07:43:33.489Z,2.27
2022-09-15T07:46:02.005Z,2.10
2022-09-15T07:48:30.728Z,1.90
2022-09-15T07:50:59.928Z,2.20
2022-09-15T07:53:29.232Z,2.30
2022-09-15T07:55:58.881Z,1.80
2022-09-15T07:58:27.253Z,2.07
2022-09-15T08:00:55.546Z,1.80
2022-09-15T08:03:23.877Z,2.23
2022-09-15T08:05:52.267Z,1.70
2022-09-15T08:08:20.499Z,2.00
2022-09-15T08:10:48.719Z,2.00
2022-09-15T08:13:18.287Z,2.20
2022-09-15T08:15:46.553Z,2.00
2022-09-15T08:18:15.137Z,1.80
2022-09-15T08:20:43.717Z,2.20
2022-09-15T08:23:12.475Z,1.93
2022-09-15T08:25:40.723Z,1.90
2022-09-15T08:28:08.942Z,1.90
2022-09-15T08:30:38.888Z,2.00
2022-09-15T08:33:07.097Z,2.00
2022-09-15T08:35:36.839Z,2.27
2022-09-15T08:38:05.066Z,2.23
2022-09-15T08:40:36.541Z,1.97
2022-09-15T08:43:07.189Z,2.00
2022-09-15T08:45:38.800Z,1.37
2022-09-15T08:48:08.582Z,2.20
2022-09-15T08:50:38.877Z,2.00
2022-09-15T08:53:09.693Z,1.73
2022-09-15T08:55:41.435Z,2.17
2022-09-15T08:58:12.851Z,2.33
2022-09-15T09:00:43.702Z,1.83
2022-09-15T09:03:27.055Z,2.00
2022-09-15T09:05:58.990Z,1.50
2022-09-15T09:08:45.198Z,1.57
2022-09-15T09:11:16.903Z,1.92
2022-09-15T09:13:48.411Z,2.10
2022-09-15T09:16:27.322Z,2.40
2022-09-15T09:19:10.924Z,1.83
2022-09-15T09:21:40.716Z,1.63
2022-09-15T09:24:15.504Z,1.92
2022-09-15T09:26:44.006Z,1.73
2022-09-15T09:29:15.225Z,1.45
2022-09-15T09:31:43.568Z,1.75
2022-09-15T09:34:20.575Z,1.52
2022-09-15T09:36:53.662Z,2.10
2022-09-15T09:39:22.671Z,1.88
2022-09-15T09:41:51.033Z,1.80
2022-09-15T09:44:20.220Z,1.63
2022-09-15T09:46:49.290Z,1.90
2022-09-15T09:49:20.981Z,1.70
2022-09-15T09:51:52.978Z,1.60
2022-09-15T09:54:21.871Z,1.57
2022-09-15T09:56:50.590Z,1.53
2022-09-15T09:59:35.829Z,1.73
2022-09-15T10:02:12.644Z,1.35
2022-09-15T10:04:43.357Z,1.60
2022-09-15T10:07:12.023Z,1.23
2022-09-15T10:09:40.853Z,1.93
2022-09-15T10:12:09.425Z,1.52
2022-09-15T10:14:39.113Z,1.23
2022-09-15T10:17:09.208Z,1.42
2022-09-15T10:19:45.288Z,2.10
2022-09-15T10:22:23.432Z,1.35
2022-09-15T10:24:51.626Z,2.40
2022-09-15T10:27:20.942Z,1.38
2022-09-15T10:29:49.533Z,1.98
2022-09-15T10:32:22.973Z,1.30
2022-09-15T10:35:00.791Z,1.50
2022-09-15T10:37:32.408Z,1.10
2022-09-15T10:40:01.940Z,1.63
2022-09-15T10:42:36.249Z,1.38
2022-09-15T10:45:18.702Z,1.40
2022-09-15T10:48:03.118Z,1.20
2022-09-15T10:50:32.715Z,1.20
2022-09-15T10:53:10.586Z,1.02
2022-09-15T10:55:52.630Z,0.98
2022-09-15T10:58:31.386Z,1.27
2022-09-15T11:01:03.721Z,1.38
2022-09-15T11:03:39.732Z,1.30
2022-09-15T11:06:14.319Z,1.42
2022-09-15T11:08:48.061Z,1.10
2022-09-15T11:11:20.104Z,1.00
2022-09-15T11:13:56.625Z,1.20
2022-09-15T11:16:35.633Z,1.00
2022-09-15T11:19:11.285Z,1.30
2022-09-15T11:21:41.303Z,1.30
2022-09-15T11:24:20.890Z,1.55
2022-09-15T11:26:51.481Z,1.02
2022-09-15T11:29:21.956Z,0.95
2022-09-15T11:31:52.641Z,0.75
2022-09-15T11:34:23.162Z,1.27
2022-09-15T11:36:53.618Z,1.58
2022-09-15T11:39:25.828Z,1.40
2022-09-15T11:41:56.509Z,1.90
2022-09-15T11:44:26.257Z,0.90
2022-09-15T11:47:00.085Z,0.90
2022-09-15T11:49:30.307Z,0.98
2022-09-15T11:52:00.985Z,1.15
2022-09-15T11:54:33.874Z,1.05
2022-09-15T11:57:02.217Z,1.15
2022-09-15T11:59:32.709Z,1.02
2022-09-15T12:02:04.420Z,1.38
2022-09-15T12:04:34.560Z,1.60
2022-09-15T12:07:08.791Z,1.13
2022-09-15T12:09:40.812Z,1.15
2022-09-15T12:12:10.526Z,1.55
2022-09-15T12:14:40.450Z,1.95
2022-09-15T12:17:09.713Z,1.80
2022-09-15T12:19:48.585Z,1.40
2022-09-15T12:22:19.520Z,1.98
2022-09-15T12:24:52.065Z,1.50
2022-09-15T12:27:21.511Z,1.83
2022-09-15T12:29:50.281Z,1.77
2022-09-15T12:32:19.771Z,1.50
2022-09-15T12:35:01.604Z,1.70
2022-09-15T12:37:47.775Z,2.50
2022-09-15T12:40:34.066Z,2.25
2022-09-15T12:43:03.176Z,1.83
2022-09-15T12:45:33.214Z,1.92
2022-09-15T12:48:03.956Z,1.45
2022-09-15T12:50:32.973Z,2.03
2022-09-15T12:53:02.535Z,1.63
2022-09-15T12:55:34.735Z,1.65
2022-09-15T12:58:08.015Z,1.25
2022-09-15T13:00:42.338Z,1.20
2022-09-15T13:03:29.367Z,1.30
2022-09-15T13:06:18.555Z,1.90
2022-09-15T13:08:48.092Z,1.33
2022-09-15T13:11:19.279Z,1.05
2022-09-15T13:13:50.281Z,1.08
2022-09-15T13:16:20.392Z,1.10
2022-09-15T13:18:48.814Z,0.98
2022-09-15T13:21:19.311Z,1.10
2022-09-15T13:23:49.279Z,1.15
2022-09-15T13:26:22.623Z,0.93
2022-09-15T13:28:54.095Z,1.02
2022-09-15T13:31:35.470Z,2.13
2022-09-15T13:40:10.751Z,1.17
2022-09-15T13:42:48.993Z,0.98
2022-09-15T13:45:38.453Z,1.10
2022-09-15T13:48:16.737Z,1.27
2022-09-15T13:50:46.839Z,1.52
2022-09-15T13:53:30.373Z,1.30
2022-09-15T13:55:58.687Z,0.80
2022-09-15T14:01:18.816Z,1.23
2022-09-15T14:03:48.307Z,1.75
2022-09-15T14:06:18.561Z,1.23
2022-09-15T14:08:48.982Z,1.60
2022-09-15T14:11:18.528Z,1.40
2022-09-15T14:13:49.269Z,1.48
2022-09-15T14:16:25.147Z,1.45
2022-09-15T14:18:54.406Z,1.05
2022-09-15T14:21:27.028Z,1.60
2022-09-15T14:23:55.854Z,1.40
2022-09-15T14:26:25.131Z,1.67
2022-09-15T14:28:57.222Z,0.85
2022-09-15T14:31:29.301Z,1.23
2022-09-15T14:33:58.114Z,1.20
2022-09-15T14:36:27.602Z,1.20
2022-09-15T14:39:22.724Z,1.33
2022-09-15T14:41:51.698Z,1.00
2022-09-15T14:47:15.198Z,1.55
2022-09-15T14:49:43.388Z,1.13
2022-09-15T14:52:24.006Z,0.93
2022-09-15T14:54:54.606Z,1.30
2022-09-15T14:57:26.503Z,1.05
2022-09-15T15:00:00.414Z,1.38
2022-09-15T15:02:32.884Z,1.58
2022-09-15T15:05:03.204Z,1.30
2022-09-15T15:07:33.118Z,1.42
2022-09-15T15:10:03.576Z,1.48
2022-09-15T15:12:33.661Z,1.27
2022-09-15T15:15:04.047Z,1.35
2022-09-15T15:17:36.202Z,1.73
2022-09-15T15:20:14.945Z,1.13
2022-09-15T15:22:44.327Z,1.20
2022-09-15T15:25:23.530Z,1.35
2022-09-15T15:27:53.050Z,1.40
2022-09-15T15:30:29.603Z,1.30
2022-09-15T15:32:58.868Z,1.65
2022-09-15T15:35:27.781Z,1.40
2022-09-15T15:38:07.048Z,2.08
2022-09-15T15:40:37.442Z,1.00
2022-09-15T15:43:06.893Z,0.70
2022-09-15T15:45:37.019Z,0.95
2022-09-15T15:48:05.429Z,1.30
2022-09-15T15:50:33.689Z,1.55
2022-09-15T15:53:02.818Z,1.05
2022-09-15T15:55:37.866Z,1.00
2022-09-15T15:58:06.474Z,1.20
2022-09-15T16:00:37.098Z,1.33
2022-09-15T16:03:07.421Z,1.33
2022-09-15T16:05:35.893Z,1.53
2022-09-15T16:08:05.622Z,0.90
2022-09-15T16:10:39.457Z,1.08
2022-09-15T16:13:07.643Z,1.00
2022-09-15T16:15:35.883Z,1.33
2022-09-15T16:18:04.167Z,0.73
2022-09-15T16:20:33.758Z,1.10
2022-09-15T16:23:03.018Z,1.50
2022-09-15T16:25:36.717Z,1.08
2022-09-15T16:28:05.361Z,1.08
2022-09-15T16:30:34.003Z,1.30
2022-09-15T16:33:02.221Z,1.17
2022-09-15T16:35:39.247Z,5.88
2022-09-15T16:38:07.491Z,0.87
2022-09-15T16:40:37.049Z,0.63
2022-09-15T16:43:06.228Z,0.60
2022-09-15T16:45:39.712Z,0.80
2022-09-15T16:48:09.837Z,0.52
2022-09-15T16:50:45.890Z,3.13
2022-09-15T16:53:20.392Z,0.83
2022-09-15T16:55:49.304Z,0.83
2022-09-15T16:58:18.765Z,0.77
2022-09-15T17:00:48.348Z,0.90
2022-09-15T17:03:17.616Z,1.00
2022-09-15T17:05:48.811Z,1.10
2022-09-15T17:08:17.149Z,1.07
2022-09-15T17:10:45.518Z,0.77
2022-09-15T17:13:16.145Z,0.80
2022-09-15T17:15:45.730Z,0.97
2022-09-15T17:18:15.301Z,0.97
2022-09-15T17:20:43.900Z,0.87
2022-09-15T17:23:20.506Z,1.07
2022-09-15T17:25:52.970Z,0.70
2022-09-15T17:28:22.435Z,2.30
2022-09-15T17:30:51.546Z,0.93
2022-09-15T17:33:20.703Z,0.80
2022-09-15T17:35:49.295Z,0.97
2022-09-15T17:38:20.245Z,1.23
2022-09-15T17:40:50.398Z,1.57
2022-09-15T17:43:19.499Z,1.00
2022-09-15T17:45:48.152Z,1.23
2022-09-15T17:48:16.416Z,1.10
2022-09-15T17:50:45.444Z,1.50
2022-09-15T17:53:14.728Z,1.00
2022-09-15T17:55:42.954Z,1.07
2022-09-15T17:58:12.481Z,1.33
2022-09-15T18:00:41.805Z,1.10
2022-09-15T18:03:16.334Z,0.97
2022-09-15T18:05:44.500Z,1.83
2022-09-15T18:08:12.961Z,1.20
2022-09-15T18:10:41.157Z,1.17
2022-09-15T18:13:09.434Z,1.10
2022-09-15T18:15:39.024Z,1.20
2022-09-15T18:18:09.116Z,1.53
2022-09-15T18:20:37.472Z,1.37
2022-09-15T18:23:05.858Z,1.13
2022-09-15T18:25:35.037Z,1.30
2022-09-15T18:28:04.052Z,1.37
2022-09-15T18:30:33.277Z,0.80
2022-09-15T18:33:02.957Z,1.40
2022-09-15T18:35:34.094Z,1.30
2022-09-15T18:38:02.496Z,1.20
2022-09-15T18:40:30.950Z,1.10
2022-09-15T18:42:59.240Z,1.20
2022-09-15T18:45:27.580Z,1.17
2022-09-15T18:47:55.832Z,1.17
2022-09-15T18:50:26.511Z,1.20
2022-09-15T18:52:54.734Z,1.17
2022-09-15T18:55:24.781Z,0.90
2022-09-15T18:57:53.142Z,1.00
2022-09-15T19:00:22.698Z,1.20
2022-09-15T19:02:58.295Z,1.20
2022-09-15T19:05:28.079Z,1.50
2022-09-15T19:07:56.568Z,1.00
2022-09-15T19:10:25.346Z,1.20
2022-09-15T19:12:53.886Z,0.87
2022-09-15T19:15:25.101Z,1.20
2022-09-15T19:17:53.590Z,1.20
2022-09-15T19:20:21.849Z,1.40
2022-09-15T19:22:51.747Z,1.23
2022-09-15T19:25:20.522Z,1.27
2022-09-15T19:27:48.961Z,0.77
2022-09-15T19:30:17.297Z,0.80
2022-09-15T19:32:45.533Z,1.10
2022-09-15T19:35:13.813Z,1.30
2022-09-15T19:37:42.772Z,1.40
2022-09-15T19:40:13.793Z,1.40
2022-09-15T19:42:42.944Z,1.10
2022-09-15T19:45:11.821Z,1.20
2022-09-15T19:47:40.388Z,0.70
2022-09-15T19:50:09.696Z,0.93
2022-09-15T19:52:38.018Z,0.80
2022-09-15T19:55:07.384Z,1.37
2022-09-15T19:57:39.195Z,1.53
2022-09-15T20:00:08.416Z,0.93
2022-09-15T20:02:36.699Z,1.07
2022-09-15T20:05:05.078Z,1.80
2022-09-15T20:07:33.325Z,1.00
2022-09-15T20:10:01.542Z,1.23
2022-09-15T20:12:31.079Z,1.10
2022-09-15T20:15:00.620Z,1.00
2022-09-15T20:17:28.864Z,1.37
2022-09-15T20:19:57.304Z,1.20
2022-09-15T20:22:25.725Z,1.30
2022-09-15T20:24:56.001Z,0.80
2022-09-15T20:27:24.242Z,1.20
2022-09-15T20:29:52.496Z,1.10
2022-09-15T20:32:27.517Z,1.20
2022-09-15T20:34:58.249Z,1.00
2022-09-15T20:37:26.690Z,1.33
2022-09-15T20:39:55.236Z,1.10
2022-09-15T20:42:23.518Z,1.00
2022-09-15T20:44:51.713Z,1.50
2022-09-15T20:47:19.971Z,1.03
2022-09-15T20:49:49.587Z,1.00
2022-09-15T20:52:17.777Z,1.37
2022-09-15T20:54:45.952Z,1.53
2022-09-15T20:57:14.118Z,1.10
2022-09-15T20:59:42.486Z,1.37
2022-09-15T21:02:11.172Z,1.20
2022-09-15T21:04:39.402Z,1.20
2022-09-15T21:07:09.074Z,1.27
2022-09-15T21:09:37.291Z,1.17
2022-09-15T21:12:05.789Z,1.50
2022-09-15T21:14:33.959Z,1.20
2022-09-15T21:17:02.136Z,1.07
2022-09-15T21:19:30.907Z,1.47
2022-09-15T21:21:59.437Z,1.50
2022-09-15T21:24:29.039Z,1.57
2022-09-15T21:27:14.701Z,1.20
2022-09-15T21:29:43.207Z,1.53
2022-09-15T21:32:11.432Z,1.30
2022-09-15T21:34:39.668Z,1.33
2022-09-15T21:37:07.933Z,1.30
2022-09-15T21:39:37.533Z,1.43
2022-09-15T21:42:06.228Z,1.10
2022-09-15T21:44:34.438Z,1.07
2022-09-15T21:47:02.639Z,1.60
2022-09-15T21:49:31.611Z,1.73
2022-09-15T21:51:59.810Z,1.53
2022-09-15T21:54:28.112Z,1.40
2022-09-15T21:56:58.025Z,1.30
2022-09-15T21:59:26.196Z,1.70
2022-09-15T22:01:54.464Z,1.47
2022-09-15T22:04:22.771Z,1.90
2022-09-15T22:06:52.811Z,1.90
2022-09-15T22:09:21.408Z,1.90
2022-09-15T22:11:49.763Z,1.87
2022-09-15T22:14:19.312Z,1.50
2022-09-15T22:16:47.605Z,1.60
2022-09-15T22:19:15.852Z,2.07
2022-09-15T22:21:44.363Z,1.43
2022-09-15T22:24:13.392Z,1.67
2022-09-15T22:26:43.317Z,1.73
2022-09-15T22:29:11.834Z,1.93
2022-09-15T22:31:42.010Z,1.43
2022-09-15T22:34:10.384Z,2.20
2022-09-15T22:36:38.563Z,1.60
2022-09-15T22:39:06.743Z,1.53
2022-09-15T22:41:35.963Z,1.33
2022-09-15T22:44:04.714Z,1.70
2022-09-15T22:46:33.456Z,1.50
2022-09-15T22:49:03.295Z,1.97
2022-09-15T22:51:31.537Z,1.57
2022-09-15T22:54:02.873Z,1.37
2022-09-15T22:56:31.358Z,1.67
2022-09-15T22:58:59.568Z,1.60
2022-09-15T23:01:29.002Z,1.40
2022-09-15T23:03:58.355Z,1.30
2022-09-15T23:06:29.100Z,1.47
2022-09-15T23:08:58.391Z,1.40
2022-09-15T23:11:27.468Z,1.80
2022-09-15T23:13:56.263Z,1.50
2022-09-15T23:16:25.088Z,1.67
2022-09-15T23:18:53.508Z,1.60
2022-09-15T23:21:22.240Z,1.40
2022-09-15T23:23:52.188Z,1.30
2022-09-15T23:26:22.518Z,1.20
2022-09-15T23:28:50.673Z,1.60
2022-09-15T23:31:19.473Z,1.43
2022-09-15T23:33:48.460Z,1.50
2022-09-15T23:36:19.329Z,1.40
2022-09-15T23:38:48.161Z,1.50
2022-09-15T23:41:18.413Z,1.87
2022-09-15T23:43:46.617Z,1.37
2022-09-15T23:46:14.983Z,1.53
2022-09-15T23:48:43.263Z,1.53
2022-09-15T23:51:11.576Z,1.57
2022-09-15T23:53:39.771Z,1.40
2022-09-15T23:56:08.344Z,1.40
2022-09-15T23:58:37.882Z,1.30
